ěÝzenÝ letovÚho provozu ╚eskÚ republiky
Letiste: LKLN Aktualizace: 13.07.2024 00:59:39  UTC
 METAR LKLN 13.07. 01:00 ...
METAR LKLN 130100Z AUTO 22007KT 9999 -RA OVC100 18/17 Q1011=